Portada
METAR-TAF:

METAR-TAF

Aeropuertos :

Madrid, España

Aeropuerto de Madrid-Barajas

latitud: 40-27N, longitud: 003-33W, altitud: 609 m

Observación

El informe se hizo hace 38 minutos, a las 01:30 UTC
Viento 6 kt del norte
Temperatura 13°C
Humedad 88%
Presión 1018 hPa
Visibilidad 10 km o más
Escasas nubes a una altura de 2200 ft

METAR: LEMD 230130Z 35006KT 9999 FEW022 13/11 Q1018 NOSIG

Hora: 04:08 (02:08 UTC)

Pronóstico

El informe se hizo hace 3 horas y 8 minutos, a las 23:00 UTC
Pronóstico válido del 23 a las 00 UTC al 24 a las 06 UTC
Viento 7 kt del este-noreste
Visibilidad 10 km o más
sin nubes por debajo de 1500 m y sin presencia de cumulonimbus.
Temporalmente
del 23 a las 14 UTC al 23 a las 16 UTC
Escasas nubes a una altura de 5000 ft, Cumulus congestus.

TAF: LEMD 222300Z 2300/2406 07007KT CAVOK TX24/2315Z TN11/2306Z TEMPO 2314/2316 FEW050TCU

Observaciones y pronósticos meteorológicos de más de 4000 aeropuertos (mensajes METAR y TAF).

Los puntos amarillos y rojos representan las estaciones disponibles.

Ponga el ratón en el punto deseado para ver el nombre de la estación.

Haga clic para ver las observaciones y los pronósticos meteorológicos.

Para cambiar el mapa : haga clic en los botones verdes con una cruz de color negro para hacer un zoom, en el botón verde con un guión para alejar o en las flechas verdes para mapas adyacentes.


METAR-TAF: